Decoded Metar for KLLQ (MONTICELLO in AR, USA) (IATA:LLQ) | Meteo·Mobile Aviation Weather
aviador You're here:

KLLQ Decoded Metar

MONTICELLO in AR, USA
Report Time2019-10-22 12:53:00
UTC Time2019-10-22 13:44:31
Flight Rules vfr VFR
Wind270° at 04 kt
W.Decomp.*RWY 21: 2.1 kt HW 3.4 kt RCW
Visibility9999 m
Phenomena:N/A
Clouds:N/A
Expected CloudBase > 1,200 ft AGL from Temp-Dew spread
CeilingNone
Temp09°C (ISA -5)
Dew Point06°C (82% RH)
AAT6.7°C
QNH1020 hPa
Density Alt-492 ft
Elevation272 ft
Report Wrong Elevation
Raw Report
KLLQ 221253Z AUTO 27004KT 10SM CLR 09/06 A3011 RMK AO2 SLP195
T00890061=

Extra information for KLLQ:More info

Metar Taf Metar & Taf Last 4 Metars F.Rules Stats Wind Profile Meteogram Temp Stats Airport Information Weather charts Add Link Nearby VenuesMetar ALERT Operation Metar Decoded Social comments

AIRNAV info for KLLQ